sensor_id;sensor_type;location;lat;lon;timestamp;P1;durP1;ratioP1;P2;durP2;ratioP2
37341;SDS011;58643;49.052;8.518;2023-02-28T00:00:32;7.18;;;3.60;;
37341;SDS011;58643;49.052;8.518;2023-02-28T00:02:58;6.15;;;3.65;;
37341;SDS011;58643;49.052;8.518;2023-02-28T00:05:24;7.53;;;3.58;;
37341;SDS011;58643;49.052;8.518;2023-02-28T00:07:51;5.88;;;3.78;;
37341;SDS011;58643;49.052;8.518;2023-02-28T00:10:22;7.20;;;3.63;;
37341;SDS011;58643;49.052;8.518;2023-02-28T00:12:49;5.35;;;3.40;;
37341;SDS011;58643;49.052;8.518;2023-02-28T00:15:16;7.18;;;3.60;;
37341;SDS011;58643;49.052;8.518;2023-02-28T00:17:42;6.90;;;3.78;;
37341;SDS011;58643;49.052;8.518;2023-02-28T00:20:09;5.68;;;3.50;;
37341;SDS011;58643;49.052;8.518;2023-02-28T00:22:44;7.75;;;3.53;;
37341;SDS011;58643;49.052;8.518;2023-02-28T00:25:12;6.22;;;3.60;;
37341;SDS011;58643;49.052;8.518;2023-02-28T00:27:41;6.00;;;3.55;;
37341;SDS011;58643;49.052;8.518;2023-02-28T00:30:09;8.48;;;3.53;;
37341;SDS011;58643;49.052;8.518;2023-02-28T00:32:37;8.25;;;3.45;;
37341;SDS011;58643;49.052;8.518;2023-02-28T00:35:03;6.00;;;3.80;;
37341;SDS011;58643;49.052;8.518;2023-02-28T00:37:29;6.65;;;3.38;;
37341;SDS011;58643;49.052;8.518;2023-02-28T00:39:55;6.72;;;4.00;;
37341;SDS011;58643;49.052;8.518;2023-02-28T00:42:21;6.50;;;3.47;;
37341;SDS011;58643;49.052;8.518;2023-02-28T00:44:47;7.57;;;3.50;;
37341;SDS011;58643;49.052;8.518;2023-02-28T00:47:12;6.90;;;3.45;;
37341;SDS011;58643;49.052;8.518;2023-02-28T00:49:38;6.18;;;3.38;;
37341;SDS011;58643;49.052;8.518;2023-02-28T00:52:03;7.45;;;3.67;;
37341;SDS011;58643;49.052;8.518;2023-02-28T00:54:29;8.30;;;3.45;;
37341;SDS011;58643;49.052;8.518;2023-02-28T00:56:55;11.20;;;3.83;;
37341;SDS011;58643;49.052;8.518;2023-02-28T00:59:20;4.10;;;3.15;;
37341;SDS011;58643;49.052;8.518;2023-02-28T01:01:46;6.75;;;3.28;;
37341;SDS011;58643;49.052;8.518;2023-02-28T01:04:12;8.57;;;3.30;;
37341;SDS011;58643;49.052;8.518;2023-02-28T01:06:38;5.75;;;3.25;;
37341;SDS011;58643;49.052;8.518;2023-02-28T01:09:05;7.82;;;3.80;;
37341;SDS011;58643;49.052;8.518;2023-02-28T01:11:32;6.55;;;3.65;;
37341;SDS011;58643;49.052;8.518;2023-02-28T01:13:58;4.85;;;3.55;;
37341;SDS011;58643;49.052;8.518;2023-02-28T01:16:24;5.25;;;3.33;;
37341;SDS011;58643;49.052;8.518;2023-02-28T01:18:50;5.65;;;3.55;;
37341;SDS011;58643;49.052;8.518;2023-02-28T01:21:16;7.35;;;3.75;;
37341;SDS011;58643;49.052;8.518;2023-02-28T01:23:43;8.38;;;3.95;;
37341;SDS011;58643;49.052;8.518;2023-02-28T01:26:13;8.18;;;3.97;;
37341;SDS011;58643;49.052;8.518;2023-02-28T01:28:40;7.60;;;4.13;;
37341;SDS011;58643;49.052;8.518;2023-02-28T01:31:06;7.05;;;3.53;;
37341;SDS011;58643;49.052;8.518;2023-02-28T01:33:33;6.43;;;3.78;;
37341;SDS011;58643;49.052;8.518;2023-02-28T01:35:59;8.45;;;4.15;;
37341;SDS011;58643;49.052;8.518;2023-02-28T01:38:44;6.07;;;3.58;;
37341;SDS011;58643;49.052;8.518;2023-02-28T01:41:18;5.75;;;3.60;;
37341;SDS011;58643;49.052;8.518;2023-02-28T01:43:59;5.75;;;3.70;;
37341;SDS011;58643;49.052;8.518;2023-02-28T01:46:30;6.90;;;4.15;;
37341;SDS011;58643;49.052;8.518;2023-02-28T01:49:00;11.00;;;4.10;;
37341;SDS011;58643;49.052;8.518;2023-02-28T01:51:32;7.90;;;3.67;;
37341;SDS011;58643;49.052;8.518;2023-02-28T01:54:00;9.02;;;3.75;;
37341;SDS011;58643;49.052;8.518;2023-02-28T01:56:30;10.82;;;3.55;;
37341;SDS011;58643;49.052;8.518;2023-02-28T01:58:59;6.65;;;3.75;;
37341;SDS011;58643;49.052;8.518;2023-02-28T02:01:25;7.32;;;3.83;;
37341;SDS011;58643;49.052;8.518;2023-02-28T02:03:53;6.00;;;3.38;;
37341;SDS011;58643;49.052;8.518;2023-02-28T02:06:22;7.63;;;3.92;;
37341;SDS011;58643;49.052;8.518;2023-02-28T02:08:54;6.85;;;3.78;;
37341;SDS011;58643;49.052;8.518;2023-02-28T02:11:20;7.57;;;4.50;;
37341;SDS011;58643;49.052;8.518;2023-02-28T02:16:58;6.97;;;4.20;;
37341;SDS011;58643;49.052;8.518;2023-02-28T02:19:49;10.38;;;3.85;;
37341;SDS011;58643;49.052;8.518;2023-02-28T02:28:32;11.63;;;4.30;;
37341;SDS011;58643;49.052;8.518;2023-02-28T02:33:36;6.65;;;3.90;;
37341;SDS011;58643;49.052;8.518;2023-02-28T02:39:19;7.95;;;4.05;;
37341;SDS011;58643;49.052;8.518;2023-02-28T02:42:04;8.73;;;4.57;;
37341;SDS011;58643;49.052;8.518;2023-02-28T02:44:43;7.25;;;4.50;;
37341;SDS011;58643;49.052;8.518;2023-02-28T02:47:15;9.43;;;4.55;;
37341;SDS011;58643;49.052;8.518;2023-02-28T02:49:49;8.02;;;4.43;;
37341;SDS011;58643;49.052;8.518;2023-02-28T02:52:18;8.45;;;4.63;;
37341;SDS011;58643;49.052;8.518;2023-02-28T02:54:48;7.38;;;4.53;;
37341;SDS011;58643;49.052;8.518;2023-02-28T03:00:07;7.10;;;4.15;;
37341;SDS011;58643;49.052;8.518;2023-02-28T03:02:35;9.65;;;4.68;;
37341;SDS011;58643;49.052;8.518;2023-02-28T03:05:08;9.55;;;4.53;;
37341;SDS011;58643;49.052;8.518;2023-02-28T03:07:50;9.80;;;4.90;;
37341;SDS011;58643;49.052;8.518;2023-02-28T03:10:29;11.30;;;4.85;;
37341;SDS011;58643;49.052;8.518;2023-02-28T03:13:07;14.48;;;5.38;;
37341;SDS011;58643;49.052;8.518;2023-02-28T03:16:11;8.35;;;4.28;;
37341;SDS011;58643;49.052;8.518;2023-02-28T03:21:38;8.48;;;4.60;;
37341;SDS011;58643;49.052;8.518;2023-02-28T03:24:15;10.23;;;4.85;;
37341;SDS011;58643;49.052;8.518;2023-02-28T03:26:51;8.75;;;4.60;;
37341;SDS011;58643;49.052;8.518;2023-02-28T03:29:30;11.40;;;4.50;;
37341;SDS011;58643;49.052;8.518;2023-02-28T03:32:05;10.40;;;4.97;;
37341;SDS011;58643;49.052;8.518;2023-02-28T03:34:42;9.23;;;4.80;;
37341;SDS011;58643;49.052;8.518;2023-02-28T03:37:18;8.52;;;4.93;;
37341;SDS011;58643;49.052;8.518;2023-02-28T03:39:47;9.05;;;4.57;;
37341;SDS011;58643;49.052;8.518;2023-02-28T03:42:19;9.82;;;4.80;;
37341;SDS011;58643;49.052;8.518;2023-02-28T03:44:49;7.82;;;4.70;;
37341;SDS011;58643;49.052;8.518;2023-02-28T03:47:17;9.73;;;4.90;;
37341;SDS011;58643;49.052;8.518;2023-02-28T03:52:30;8.47;;;4.60;;
37341;SDS011;58643;49.052;8.518;2023-02-28T03:55:00;8.02;;;4.65;;
37341;SDS011;58643;49.052;8.518;2023-02-28T04:00:10;7.82;;;4.38;;
37341;SDS011;58643;49.052;8.518;2023-02-28T04:02:41;8.63;;;4.53;;
37341;SDS011;58643;49.052;8.518;2023-02-28T04:05:07;9.50;;;4.93;;
37341;SDS011;58643;49.052;8.518;2023-02-28T04:09:59;8.07;;;4.40;;
37341;SDS011;58643;49.052;8.518;2023-02-28T04:12:24;8.98;;;4.50;;
37341;SDS011;58643;49.052;8.518;2023-02-28T04:14:50;10.18;;;4.93;;
37341;SDS011;58643;49.052;8.518;2023-02-28T04:17:16;12.18;;;5.97;;
37341;SDS011;58643;49.052;8.518;2023-02-28T04:19:42;9.75;;;4.85;;
37341;SDS011;58643;49.052;8.518;2023-02-28T04:22:08;9.40;;;5.80;;
37341;SDS011;58643;49.052;8.518;2023-02-28T04:24:34;10.25;;;5.85;;
37341;SDS011;58643;49.052;8.518;2023-02-28T04:27:00;9.05;;;4.93;;
37341;SDS011;58643;49.052;8.518;2023-02-28T04:29:27;9.95;;;4.65;;
37341;SDS011;58643;49.052;8.518;2023-02-28T04:32:00;8.55;;;4.90;;
37341;SDS011;58643;49.052;8.518;2023-02-28T04:34:26;12.57;;;5.07;;
37341;SDS011;58643;49.052;8.518;2023-02-28T04:36:54;10.38;;;5.80;;
37341;SDS011;58643;49.052;8.518;2023-02-28T04:39:21;9.95;;;5.15;;
37341;SDS011;58643;49.052;8.518;2023-02-28T04:41:47;9.63;;;5.00;;
37341;SDS011;58643;49.052;8.518;2023-02-28T04:44:13;10.35;;;5.40;;
37341;SDS011;58643;49.052;8.518;2023-02-28T04:46:39;8.05;;;4.97;;
37341;SDS011;58643;49.052;8.518;2023-02-28T04:49:05;10.85;;;5.00;;
37341;SDS011;58643;49.052;8.518;2023-02-28T04:51:31;8.43;;;4.47;;
37341;SDS011;58643;49.052;8.518;2023-02-28T04:53:56;9.65;;;4.20;;
37341;SDS011;58643;49.052;8.518;2023-02-28T04:56:22;10.20;;;4.90;;
37341;SDS011;58643;49.052;8.518;2023-02-28T04:58:48;11.43;;;5.05;;
37341;SDS011;58643;49.052;8.518;2023-02-28T05:01:18;8.25;;;4.85;;
37341;SDS011;58643;49.052;8.518;2023-02-28T05:03:49;8.98;;;4.82;;
37341;SDS011;58643;49.052;8.518;2023-02-28T05:06:16;10.50;;;4.80;;
37341;SDS011;58643;49.052;8.518;2023-02-28T05:08:42;12.02;;;5.50;;
37341;SDS011;58643;49.052;8.518;2023-02-28T05:11:27;13.90;;;6.20;;
37341;SDS011;58643;49.052;8.518;2023-02-28T05:13:58;11.55;;;5.07;;
37341;SDS011;58643;49.052;8.518;2023-02-28T05:16:24;14.65;;;5.88;;
37341;SDS011;58643;49.052;8.518;2023-02-28T05:18:49;11.32;;;5.38;;
37341;SDS011;58643;49.052;8.518;2023-02-28T05:21:37;11.93;;;5.65;;
37341;SDS011;58643;49.052;8.518;2023-02-28T05:24:06;13.35;;;5.82;;
37341;SDS011;58643;49.052;8.518;2023-02-28T05:26:35;11.27;;;5.53;;
37341;SDS011;58643;49.052;8.518;2023-02-28T05:29:03;10.67;;;5.03;;
37341;SDS011;58643;49.052;8.518;2023-02-28T05:31:30;11.63;;;5.90;;
37341;SDS011;58643;49.052;8.518;2023-02-28T05:33:55;8.27;;;5.50;;
37341;SDS011;58643;49.052;8.518;2023-02-28T05:36:21;12.35;;;5.32;;
37341;SDS011;58643;49.052;8.518;2023-02-28T05:38:47;9.98;;;5.22;;
37341;SDS011;58643;49.052;8.518;2023-02-28T05:41:14;10.35;;;5.68;;
37341;SDS011;58643;49.052;8.518;2023-02-28T05:43:39;9.82;;;5.55;;
37341;SDS011;58643;49.052;8.518;2023-02-28T05:46:06;7.75;;;4.82;;
37341;SDS011;58643;49.052;8.518;2023-02-28T05:48:36;14.13;;;5.65;;
37341;SDS011;58643;49.052;8.518;2023-02-28T05:51:02;15.07;;;5.72;;
37341;SDS011;58643;49.052;8.518;2023-02-28T05:53:29;10.00;;;5.18;;
37341;SDS011;58643;49.052;8.518;2023-02-28T05:55:55;10.60;;;5.32;;
37341;SDS011;58643;49.052;8.518;2023-02-28T05:58:21;11.18;;;4.88;;
37341;SDS011;58643;49.052;8.518;2023-02-28T06:00:47;10.05;;;5.18;;
37341;SDS011;58643;49.052;8.518;2023-02-28T06:03:14;10.20;;;5.20;;
37341;SDS011;58643;49.052;8.518;2023-02-28T06:05:40;11.07;;;5.32;;
37341;SDS011;58643;49.052;8.518;2023-02-28T06:08:05;8.90;;;4.88;;
37341;SDS011;58643;49.052;8.518;2023-02-28T06:10:32;9.65;;;5.82;;
37341;SDS011;58643;49.052;8.518;2023-02-28T06:12:59;10.50;;;5.78;;
37341;SDS011;58643;49.052;8.518;2023-02-28T06:15:27;9.52;;;5.20;;
37341;SDS011;58643;49.052;8.518;2023-02-28T06:17:53;10.32;;;5.55;;
37341;SDS011;58643;49.052;8.518;2023-02-28T06:20:21;9.05;;;4.70;;
37341;SDS011;58643;49.052;8.518;2023-02-28T06:22:47;10.75;;;5.80;;
37341;SDS011;58643;49.052;8.518;2023-02-28T06:25:13;8.02;;;5.30;;
37341;SDS011;58643;49.052;8.518;2023-02-28T06:27:38;8.68;;;5.40;;
37341;SDS011;58643;49.052;8.518;2023-02-28T06:30:04;11.20;;;6.38;;
37341;SDS011;58643;49.052;8.518;2023-02-28T06:32:30;12.18;;;5.85;;
37341;SDS011;58643;49.052;8.518;2023-02-28T06:34:55;11.90;;;5.80;;
37341;SDS011;58643;49.052;8.518;2023-02-28T06:37:22;14.68;;;5.70;;
37341;SDS011;58643;49.052;8.518;2023-02-28T06:39:51;10.45;;;5.07;;
37341;SDS011;58643;49.052;8.518;2023-02-28T06:42:17;9.73;;;5.53;;
37341;SDS011;58643;49.052;8.518;2023-02-28T06:44:42;10.20;;;5.70;;
37341;SDS011;58643;49.052;8.518;2023-02-28T06:47:08;10.80;;;5.68;;
37341;SDS011;58643;49.052;8.518;2023-02-28T06:49:34;8.65;;;4.88;;
37341;SDS011;58643;49.052;8.518;2023-02-28T06:52:00;11.68;;;5.53;;
37341;SDS011;58643;49.052;8.518;2023-02-28T06:54:26;12.02;;;5.45;;
37341;SDS011;58643;49.052;8.518;2023-02-28T06:56:52;10.23;;;5.70;;
37341;SDS011;58643;49.052;8.518;2023-02-28T06:59:19;11.23;;;5.38;;
37341;SDS011;58643;49.052;8.518;2023-02-28T07:01:45;8.90;;;5.07;;
37341;SDS011;58643;49.052;8.518;2023-02-28T07:04:11;12.93;;;5.95;;
37341;SDS011;58643;49.052;8.518;2023-02-28T07:06:38;11.43;;;6.05;;
37341;SDS011;58643;49.052;8.518;2023-02-28T07:09:03;10.52;;;5.55;;
37341;SDS011;58643;49.052;8.518;2023-02-28T07:11:29;12.90;;;6.18;;
37341;SDS011;58643;49.052;8.518;2023-02-28T07:13:55;11.73;;;5.88;;
37341;SDS011;58643;49.052;8.518;2023-02-28T07:16:21;9.95;;;5.57;;
37341;SDS011;58643;49.052;8.518;2023-02-28T07:18:48;13.55;;;6.53;;
37341;SDS011;58643;49.052;8.518;2023-02-28T07:21:14;11.73;;;5.85;;
37341;SDS011;58643;49.052;8.518;2023-02-28T07:23:40;12.98;;;6.00;;
37341;SDS011;58643;49.052;8.518;2023-02-28T07:26:11;9.67;;;5.70;;
37341;SDS011;58643;49.052;8.518;2023-02-28T07:28:39;9.10;;;5.50;;
37341;SDS011;58643;49.052;8.518;2023-02-28T07:31:06;9.57;;;5.38;;
37341;SDS011;58643;49.052;8.518;2023-02-28T07:33:32;9.70;;;5.60;;
37341;SDS011;58643;49.052;8.518;2023-02-28T07:36:03;13.48;;;5.97;;
37341;SDS011;58643;49.052;8.518;2023-02-28T07:38:30;9.32;;;5.55;;
37341;SDS011;58643;49.052;8.518;2023-02-28T07:40:58;9.60;;;5.75;;
37341;SDS011;58643;49.052;8.518;2023-02-28T07:43:23;9.30;;;5.03;;
37341;SDS011;58643;49.052;8.518;2023-02-28T07:45:49;10.13;;;5.82;;
37341;SDS011;58643;49.052;8.518;2023-02-28T07:48:15;9.75;;;5.82;;
37341;SDS011;58643;49.052;8.518;2023-02-28T07:50:40;11.38;;;5.68;;
37341;SDS011;58643;49.052;8.518;2023-02-28T07:53:06;13.98;;;6.10;;
37341;SDS011;58643;49.052;8.518;2023-02-28T07:55:32;10.23;;;5.97;;
37341;SDS011;58643;49.052;8.518;2023-02-28T07:57:57;10.30;;;5.80;;
37341;SDS011;58643;49.052;8.518;2023-02-28T08:00:23;11.85;;;6.45;;
37341;SDS011;58643;49.052;8.518;2023-02-28T08:02:49;10.77;;;5.75;;
37341;SDS011;58643;49.052;8.518;2023-02-28T08:05:16;9.18;;;5.35;;
37341;SDS011;58643;49.052;8.518;2023-02-28T08:07:42;9.73;;;4.88;;
37341;SDS011;58643;49.052;8.518;2023-02-28T08:10:07;12.27;;;6.68;;
37341;SDS011;58643;49.052;8.518;2023-02-28T08:12:34;11.32;;;6.05;;
37341;SDS011;58643;49.052;8.518;2023-02-28T08:15:00;11.43;;;5.57;;
37341;SDS011;58643;49.052;8.518;2023-02-28T08:17:26;12.43;;;7.15;;
37341;SDS011;58643;49.052;8.518;2023-02-28T08:19:51;11.00;;;6.68;;
37341;SDS011;58643;49.052;8.518;2023-02-28T08:22:17;12.18;;;6.25;;
37341;SDS011;58643;49.052;8.518;2023-02-28T08:24:43;12.07;;;6.90;;
37341;SDS011;58643;49.052;8.518;2023-02-28T08:27:09;12.70;;;6.55;;
37341;SDS011;58643;49.052;8.518;2023-02-28T08:29:36;12.60;;;6.30;;
37341;SDS011;58643;49.052;8.518;2023-02-28T08:32:03;11.82;;;6.55;;
37341;SDS011;58643;49.052;8.518;2023-02-28T08:34:29;12.18;;;6.28;;
37341;SDS011;58643;49.052;8.518;2023-02-28T08:36:55;11.82;;;6.63;;
37341;SDS011;58643;49.052;8.518;2023-02-28T08:39:20;11.18;;;5.65;;
37341;SDS011;58643;49.052;8.518;2023-02-28T08:41:46;12.02;;;6.47;;
37341;SDS011;58643;49.052;8.518;2023-02-28T08:44:12;13.52;;;6.72;;
37341;SDS011;58643;49.052;8.518;2023-02-28T08:46:37;11.30;;;6.47;;
37341;SDS011;58643;49.052;8.518;2023-02-28T08:49:03;11.23;;;6.32;;
37341;SDS011;58643;49.052;8.518;2023-02-28T08:51:29;9.10;;;5.95;;
37341;SDS011;58643;49.052;8.518;2023-02-28T08:53:57;12.35;;;6.47;;
37341;SDS011;58643;49.052;8.518;2023-02-28T08:58:50;11.20;;;6.72;;
37341;SDS011;58643;49.052;8.518;2023-02-28T09:01:17;10.38;;;5.68;;
37341;SDS011;58643;49.052;8.518;2023-02-28T09:03:45;13.23;;;6.80;;
37341;SDS011;58643;49.052;8.518;2023-02-28T09:06:13;11.43;;;7.00;;
37341;SDS011;58643;49.052;8.518;2023-02-28T09:08:40;12.73;;;6.68;;
37341;SDS011;58643;49.052;8.518;2023-02-28T09:11:06;12.60;;;6.93;;
37341;SDS011;58643;49.052;8.518;2023-02-28T09:13:32;13.35;;;6.90;;
37341;SDS011;58643;49.052;8.518;2023-02-28T09:16:02;13.13;;;7.28;;
37341;SDS011;58643;49.052;8.518;2023-02-28T09:18:30;12.32;;;7.22;;
37341;SDS011;58643;49.052;8.518;2023-02-28T09:20:55;11.85;;;6.50;;
37341;SDS011;58643;49.052;8.518;2023-02-28T09:23:21;12.88;;;6.43;;
37341;SDS011;58643;49.052;8.518;2023-02-28T09:25:48;12.18;;;6.75;;
37341;SDS011;58643;49.052;8.518;2023-02-28T09:28:15;13.88;;;6.78;;
37341;SDS011;58643;49.052;8.518;2023-02-28T09:30:42;11.80;;;6.70;;
37341;SDS011;58643;49.052;8.518;2023-02-28T09:33:12;17.17;;;7.68;;
37341;SDS011;58643;49.052;8.518;2023-02-28T09:35:38;14.70;;;7.80;;
37341;SDS011;58643;49.052;8.518;2023-02-28T09:38:04;10.80;;;6.53;;
37341;SDS011;58643;49.052;8.518;2023-02-28T09:40:32;11.00;;;6.72;;
37341;SDS011;58643;49.052;8.518;2023-02-28T09:43:09;12.50;;;6.85;;
37341;SDS011;58643;49.052;8.518;2023-02-28T09:45:39;12.30;;;6.15;;
37341;SDS011;58643;49.052;8.518;2023-02-28T09:48:12;10.70;;;6.50;;
37341;SDS011;58643;49.052;8.518;2023-02-28T09:50:44;12.77;;;6.43;;
37341;SDS011;58643;49.052;8.518;2023-02-28T09:53:15;11.32;;;7.22;;
37341;SDS011;58643;49.052;8.518;2023-02-28T09:55:59;11.68;;;6.53;;
37341;SDS011;58643;49.052;8.518;2023-02-28T10:01:05;12.63;;;7.60;;
37341;SDS011;58643;49.052;8.518;2023-02-28T10:03:40;12.20;;;6.43;;
37341;SDS011;58643;49.052;8.518;2023-02-28T10:06:36;11.73;;;6.82;;
37341;SDS011;58643;49.052;8.518;2023-02-28T10:09:25;10.95;;;6.68;;
37341;SDS011;58643;49.052;8.518;2023-02-28T10:11:56;10.77;;;6.70;;
37341;SDS011;58643;49.052;8.518;2023-02-28T10:14:28;12.63;;;6.38;;
37341;SDS011;58643;49.052;8.518;2023-02-28T10:16:58;12.35;;;7.00;;
37341;SDS011;58643;49.052;8.518;2023-02-28T10:22:19;14.07;;;7.72;;
37341;SDS011;58643;49.052;8.518;2023-02-28T10:24:49;13.77;;;7.40;;
37341;SDS011;58643;49.052;8.518;2023-02-28T10:29:44;12.82;;;6.72;;
37341;SDS011;58643;49.052;8.518;2023-02-28T10:32:15;12.30;;;7.43;;
37341;SDS011;58643;49.052;8.518;2023-02-28T10:34:43;13.18;;;6.95;;
37341;SDS011;58643;49.052;8.518;2023-02-28T10:37:09;11.70;;;7.43;;
37341;SDS011;58643;49.052;8.518;2023-02-28T10:39:44;12.07;;;7.32;;
37341;SDS011;58643;49.052;8.518;2023-02-28T10:42:32;11.90;;;6.90;;
37341;SDS011;58643;49.052;8.518;2023-02-28T10:47:35;13.23;;;7.88;;
37341;SDS011;58643;49.052;8.518;2023-02-28T10:50:32;13.60;;;6.82;;
37341;SDS011;58643;49.052;8.518;2023-02-28T10:53:11;11.32;;;7.30;;
37341;SDS011;58643;49.052;8.518;2023-02-28T10:55:40;13.45;;;7.63;;
37341;SDS011;58643;49.052;8.518;2023-02-28T11:01:14;13.82;;;7.60;;
37341;SDS011;58643;49.052;8.518;2023-02-28T11:03:46;13.93;;;7.40;;
37341;SDS011;58643;49.052;8.518;2023-02-28T11:06:13;13.65;;;7.45;;
37341;SDS011;58643;49.052;8.518;2023-02-28T11:08:44;12.32;;;7.50;;
37341;SDS011;58643;49.052;8.518;2023-02-28T11:11:11;12.43;;;7.18;;
37341;SDS011;58643;49.052;8.518;2023-02-28T11:13:37;12.63;;;8.00;;
37341;SDS011;58643;49.052;8.518;2023-02-28T11:16:06;12.63;;;7.63;;
37341;SDS011;58643;49.052;8.518;2023-02-28T11:18:51;14.82;;;7.47;;
37341;SDS011;58643;49.052;8.518;2023-02-28T11:21:26;12.48;;;7.57;;
37341;SDS011;58643;49.052;8.518;2023-02-28T11:24:15;14.90;;;7.95;;
37341;SDS011;58643;49.052;8.518;2023-02-28T11:26:48;11.70;;;7.80;;
37341;SDS011;58643;49.052;8.518;2023-02-28T11:31:45;12.65;;;7.88;;
37341;SDS011;58643;49.052;8.518;2023-02-28T11:34:38;12.98;;;7.75;;
37341;SDS011;58643;49.052;8.518;2023-02-28T11:37:05;12.57;;;8.13;;
37341;SDS011;58643;49.052;8.518;2023-02-28T11:39:37;14.38;;;8.07;;
37341;SDS011;58643;49.052;8.518;2023-02-28T11:44:52;14.80;;;7.80;;
37341;SDS011;58643;49.052;8.518;2023-02-28T11:50:40;14.00;;;7.55;;
37341;SDS011;58643;49.052;8.518;2023-02-28T11:53:24;12.27;;;7.45;;
37341;SDS011;58643;49.052;8.518;2023-02-28T11:56:54;11.82;;;7.93;;
37341;SDS011;58643;49.052;8.518;2023-02-28T12:00:14;15.88;;;7.68;;
37341;SDS011;58643;49.052;8.518;2023-02-28T12:02:28;13.45;;;7.60;;
37341;SDS011;58643;49.052;8.518;2023-02-28T12:08:07;12.98;;;8.07;;
37341;SDS011;58643;49.052;8.518;2023-02-28T12:13:35;12.23;;;7.72;;
37341;SDS011;58643;49.052;8.518;2023-02-28T12:18:54;11.90;;;7.38;;
37341;SDS011;58643;49.052;8.518;2023-02-28T12:26:49;12.82;;;7.93;;
37341;SDS011;58643;49.052;8.518;2023-02-28T12:29:18;14.20;;;7.68;;
37341;SDS011;58643;49.052;8.518;2023-02-28T12:31:58;15.07;;;8.25;;
37341;SDS011;58643;49.052;8.518;2023-02-28T12:34:36;13.17;;;7.10;;
37341;SDS011;58643;49.052;8.518;2023-02-28T12:37:06;12.40;;;7.45;;
37341;SDS011;58643;49.052;8.518;2023-02-28T12:39:45;14.70;;;8.95;;
37341;SDS011;58643;49.052;8.518;2023-02-28T12:42:25;14.55;;;8.27;;
37341;SDS011;58643;49.052;8.518;2023-02-28T12:44:59;15.98;;;8.77;;
37341;SDS011;58643;49.052;8.518;2023-02-28T12:47:28;11.25;;;7.82;;
37341;SDS011;58643;49.052;8.518;2023-02-28T12:49:56;13.65;;;7.25;;
37341;SDS011;58643;49.052;8.518;2023-02-28T12:57:57;11.48;;;7.85;;
37341;SDS011;58643;49.052;8.518;2023-02-28T13:00:38;17.75;;;7.63;;
37341;SDS011;58643;49.052;8.518;2023-02-28T13:03:52;12.18;;;8.20;;
37341;SDS011;58643;49.052;8.518;2023-02-28T13:09:10;11.18;;;7.60;;
37341;SDS011;58643;49.052;8.518;2023-02-28T13:14:18;12.10;;;7.80;;
37341;SDS011;58643;49.052;8.518;2023-02-28T13:16:55;14.07;;;8.40;;
37341;SDS011;58643;49.052;8.518;2023-02-28T13:19:25;14.80;;;8.73;;
37341;SDS011;58643;49.052;8.518;2023-02-28T13:21:53;11.27;;;7.95;;
37341;SDS011;58643;49.052;8.518;2023-02-28T13:24:37;11.70;;;7.85;;
37341;SDS011;58643;49.052;8.518;2023-02-28T13:27:19;13.65;;;8.52;;
37341;SDS011;58643;49.052;8.518;2023-02-28T13:29:51;13.13;;;8.20;;
37341;SDS011;58643;49.052;8.518;2023-02-28T13:32:31;12.05;;;8.07;;
37341;SDS011;58643;49.052;8.518;2023-02-28T13:39:53;15.10;;;8.48;;
37341;SDS011;58643;49.052;8.518;2023-02-28T13:47:44;15.53;;;9.40;;
37341;SDS011;58643;49.052;8.518;2023-02-28T13:50:27;13.35;;;8.75;;
37341;SDS011;58643;49.052;8.518;2023-02-28T14:01:21;15.55;;;9.00;;
37341;SDS011;58643;49.052;8.518;2023-02-28T14:06:36;12.98;;;8.63;;
37341;SDS011;58643;49.052;8.518;2023-02-28T14:09:16;14.13;;;8.55;;
37341;SDS011;58643;49.052;8.518;2023-02-28T14:11:48;13.07;;;8.52;;
37341;SDS011;58643;49.052;8.518;2023-02-28T14:17:08;14.13;;;9.32;;
37341;SDS011;58643;49.052;8.518;2023-02-28T14:19:39;12.77;;;8.60;;
37341;SDS011;58643;49.052;8.518;2023-02-28T14:25:07;14.65;;;8.88;;
37341;SDS011;58643;49.052;8.518;2023-02-28T14:28:03;17.27;;;8.55;;
37341;SDS011;58643;49.052;8.518;2023-02-28T14:33:20;12.95;;;7.80;;
37341;SDS011;58643;49.052;8.518;2023-02-28T14:38:57;14.00;;;8.88;;
37341;SDS011;58643;49.052;8.518;2023-02-28T14:41:30;14.48;;;8.60;;
37341;SDS011;58643;49.052;8.518;2023-02-28T14:44:00;14.15;;;9.20;;
37341;SDS011;58643;49.052;8.518;2023-02-28T14:46:35;15.15;;;9.05;;
37341;SDS011;58643;49.052;8.518;2023-02-28T14:49:03;14.48;;;8.77;;
37341;SDS011;58643;49.052;8.518;2023-02-28T14:51:31;15.90;;;9.23;;
37341;SDS011;58643;49.052;8.518;2023-02-28T14:53:58;14.20;;;8.82;;
37341;SDS011;58643;49.052;8.518;2023-02-28T14:56:30;17.75;;;9.38;;
37341;SDS011;58643;49.052;8.518;2023-02-28T14:59:02;14.00;;;9.45;;
37341;SDS011;58643;49.052;8.518;2023-02-28T15:01:29;11.52;;;8.07;;
37341;SDS011;58643;49.052;8.518;2023-02-28T15:04:01;12.98;;;8.65;;
37341;SDS011;58643;49.052;8.518;2023-02-28T15:06:29;13.65;;;9.00;;
37341;SDS011;58643;49.052;8.518;2023-02-28T15:09:14;13.57;;;9.55;;
37341;SDS011;58643;49.052;8.518;2023-02-28T15:11:41;14.57;;;8.75;;
37341;SDS011;58643;49.052;8.518;2023-02-28T15:14:14;14.27;;;9.07;;
37341;SDS011;58643;49.052;8.518;2023-02-28T15:16:44;12.40;;;8.88;;
37341;SDS011;58643;49.052;8.518;2023-02-28T15:19:14;11.88;;;8.27;;
37341;SDS011;58643;49.052;8.518;2023-02-28T15:21:50;18.38;;;9.43;;
37341;SDS011;58643;49.052;8.518;2023-02-28T15:26:58;12.00;;;8.88;;
37341;SDS011;58643;49.052;8.518;2023-02-28T15:29:27;15.73;;;8.98;;
37341;SDS011;58643;49.052;8.518;2023-02-28T15:31:56;12.73;;;8.35;;
37341;SDS011;58643;49.052;8.518;2023-02-28T15:37:47;14.00;;;9.15;;
37341;SDS011;58643;49.052;8.518;2023-02-28T15:39:53;12.35;;;8.65;;
37341;SDS011;58643;49.052;8.518;2023-02-28T15:42:21;13.48;;;8.80;;
37341;SDS011;58643;49.052;8.518;2023-02-28T15:44:52;12.30;;;8.75;;
37341;SDS011;58643;49.052;8.518;2023-02-28T15:47:24;14.00;;;9.18;;
37341;SDS011;58643;49.052;8.518;2023-02-28T15:49:53;13.57;;;8.93;;
37341;SDS011;58643;49.052;8.518;2023-02-28T15:52:24;12.68;;;9.05;;
37341;SDS011;58643;49.052;8.518;2023-02-28T15:57:48;15.23;;;9.45;;
37341;SDS011;58643;49.052;8.518;2023-02-28T16:00:26;13.43;;;9.10;;
37341;SDS011;58643;49.052;8.518;2023-02-28T16:02:53;13.02;;;8.75;;
37341;SDS011;58643;49.052;8.518;2023-02-28T16:05:20;16.63;;;10.07;;
37341;SDS011;58643;49.052;8.518;2023-02-28T16:07:53;12.68;;;9.02;;
37341;SDS011;58643;49.052;8.518;2023-02-28T16:10:20;13.05;;;9.05;;
37341;SDS011;58643;49.052;8.518;2023-02-28T16:12:50;14.32;;;8.93;;
37341;SDS011;58643;49.052;8.518;2023-02-28T16:17:44;16.05;;;10.10;;
37341;SDS011;58643;49.052;8.518;2023-02-28T16:20:15;14.77;;;10.10;;
37341;SDS011;58643;49.052;8.518;2023-02-28T16:22:42;18.38;;;11.75;;
37341;SDS011;58643;49.052;8.518;2023-02-28T16:25:12;17.10;;;10.25;;
37341;SDS011;58643;49.052;8.518;2023-02-28T16:27:39;14.18;;;9.73;;
37341;SDS011;58643;49.052;8.518;2023-02-28T16:30:06;19.00;;;10.00;;
37341;SDS011;58643;49.052;8.518;2023-02-28T16:32:40;20.83;;;10.73;;
37341;SDS011;58643;49.052;8.518;2023-02-28T16:35:05;16.27;;;9.90;;
37341;SDS011;58643;49.052;8.518;2023-02-28T16:40:00;17.63;;;10.23;;
37341;SDS011;58643;49.052;8.518;2023-02-28T16:42:27;15.50;;;10.73;;
37341;SDS011;58643;49.052;8.518;2023-02-28T16:44:53;16.45;;;9.80;;
37341;SDS011;58643;49.052;8.518;2023-02-28T16:47:20;16.60;;;10.98;;
37341;SDS011;58643;49.052;8.518;2023-02-28T16:49:46;15.50;;;9.27;;
37341;SDS011;58643;49.052;8.518;2023-02-28T16:52:13;16.75;;;10.32;;
37341;SDS011;58643;49.052;8.518;2023-02-28T16:54:39;17.92;;;10.93;;
37341;SDS011;58643;49.052;8.518;2023-02-28T16:57:06;17.58;;;10.23;;
37341;SDS011;58643;49.052;8.518;2023-02-28T16:59:38;18.63;;;10.57;;